Aviation Digital Data Service (ADDS)

Output produced by METARs form (1528 UTC 24 August 2019)
found at http://www.aviationweather.gov/metar/data/
 
Forecast for: LCLK (LARNACA/LARNAX A, CY)
Text: TAF LCLK 241130Z 2412/2512 20012KT 9999 FEW030
Forecast period: 1200 to 1800 UTC 24 August 2019
Forecast type: FROM: standard forecast or significant change
Winds: from the SSW (200 degrees) at 14 MPH (12 knots; 6.2 m/s)
Visibility: 6 or more miles 10+ km)
Ceiling: at least 12,000 feet AGL
Clouds: few clouds at 3000 feet AGL
Weather: no significant weather forecast for this period
Text: BECMG 2418/2421 32006KT
Forecast period: 1800 UTC 24 August 2019 to 0800 UTC 25 August 2019
Forecast type: BECOMING: Conditions expected to become as follows by 2100 UTC 24 August 2019
Winds: from the NW (320 degrees) at 7 MPH (6 knots; 3.1 m/s)
Visibility: 6 or more miles 10+ km)
Ceiling: at least 12,000 feet AGL
Clouds: few clouds at 3000 feet AGL
Weather: no significant weather forecast for this period
Text: BECMG 2508/2511 22015KT
Forecast period: 0800 to 1200 UTC 25 August 2019
Forecast type: BECOMING: Conditions expected to become as follows by 1100 UTC 25 August 2019
Winds: from the SW (220 degrees) at 17 MPH (15 knots; 7.7 m/s)
Visibility: 6 or more miles 10+ km)
Ceiling: at least 12,000 feet AGL
Clouds: few clouds at 3000 feet AGL
Weather: no significant weather forecast for this period